Time;durP1;ratioP1;P1;durP2;ratioP2;P2;SDS_P1;SDS_P2;PMS_P1;PMS_P2;Temp;Humidity;BMP_temperature;BMP_pressure;BME280_temperature;BME280_humidity;BME280_pressure;Samples;Min_cycle;Max_cycle;Signal;HPM_P1;HPM_P2
2022/04/27 00:01:26;;;;;;;;;;;;;;;;;;5046216;28;19948;-77
2022/04/27 00:03:53;;;;;;;;;;;;;;;;;;5063070;28;19956;-77
2022/04/27 00:06:19;;;;;;;;;;;;;;;;;;5039690;28;20046;-77
2022/04/27 00:08:45;;;;;;;;;;;;;;;;;;5049251;28;20337;-78
2022/04/27 00:11:11;;;;;;;;;;;;;;;;;;5056673;28;19960;-78
2022/04/27 00:13:37;;;;;;;;;;;;;;;;;;5048264;28;19916;-78
2022/04/27 00:16:04;;;;;;;;;;;;;;;;;;5056558;28;20416;-78
2022/04/27 00:18:30;;;;;;;;;;;;;;;;;;5054366;28;19963;-78
2022/04/27 00:20:56;;;;;;;;;;;;;;;;;;5053374;28;20017;-78
2022/04/27 00:23:25;;;;;;;;;;;;;;;;;;5045827;28;20331;-78
2022/04/27 00:25:51;;;;;;;;;;;;;;;;;;5059478;28;19947;-77
2022/04/27 00:28:17;;;;;;;;;;;;;;;;;;5054331;28;19959;-78
2022/04/27 00:30:43;;;;;;;;;;;;;;;;;;5051595;28;19963;-77
2022/04/27 00:33:11;;;;;;;;;;;;;;;;;;5051596;28;19975;-78
2022/04/27 00:35:37;;;;;;;;;;;;;;;;;;5050460;28;19962;-78
2022/04/27 00:38:03;;;;;;;;;;;;;;;;;;5061735;28;19975;-78
2022/04/27 00:40:29;;;;;;;;;;;;;;;;;;5059832;28;19928;-79
2022/04/27 00:42:56;;;;;;;;;;;;;;;;;;5048051;28;19951;-78
2022/04/27 00:45:22;;;;;;;;;;;;;;;;;;5060218;28;19944;-78
2022/04/27 00:47:48;;;;;;;;;;;;;;;;;;5036970;28;21294;-77
2022/04/27 00:50:14;;;;;;;;;;;;;;;;;;5052811;28;19948;-78
2022/04/27 00:52:41;;;;;;;;;;;;;;;;;;5051526;28;19943;-77
2022/04/27 00:55:07;;;;;;;;;;;;;;;;;;5050215;28;20465;-78
2022/04/27 00:57:33;;;;;;;;;;;;;;;;;;5054958;28;19971;-76
2022/04/27 00:59:59;;;;;;;;;;;;;;;;;;5046820;28;19957;-77
2022/04/27 01:02:25;;;;;;;;;;;;;;;;;;5051258;28;19959;-77
2022/04/27 01:04:51;;;;;;;;;;;;;;;;;;5048537;28;20377;-76
2022/04/27 01:07:18;;;;;;;;;;;;;;;;;;5058650;28;19956;-76
2022/04/27 01:09:44;;;;;;;;;;;;;;;;;;5043872;28;19954;-78
2022/04/27 01:12:10;;;;;;;;;;;;;;;;;;5046475;28;19913;-77
2022/04/27 01:14:36;;;;;;;;;;;;;;;;;;5047710;28;19960;-77
2022/04/27 01:17:03;;;;;;;;;;;;;;;;;;5048748;28;20001;-77
2022/04/27 01:19:29;;;;;;;;;;;;;;;;;;5048280;28;20423;-77
2022/04/27 01:21:55;;;;;;;;;;;;;;;;;;5047070;28;20358;-77
2022/04/27 01:24:21;;;;;;;;;;;;;;;;;;5050950;28;19957;-78
2022/04/27 01:26:49;;;;;;;;;;;;;;;;;;5051275;28;19952;-78
2022/04/27 01:29:16;;;;;;;;;;;;;;;;;;5047514;28;19960;-77
2022/04/27 01:31:42;;;;;;;;;;;;;;;;;;5053248;28;19986;-78
2022/04/27 01:34:08;;;;;;;;;;;;;;;;;;5058742;28;19940;-78
2022/04/27 01:36:34;;;;;;;;;;;;;;;;;;5052580;28;19964;-78
2022/04/27 01:39:01;;;;;;;;;;;;;;;;;;5052738;28;19952;-78
2022/04/27 01:41:27;;;;;;;;;;;;;;;;;;5054420;28;20385;-78
2022/04/27 01:43:53;;;;;;;;;;;;;;;;;;5056110;28;19944;-78
2022/04/27 01:46:19;;;;;;;;;;;;;;;;;;5021964;28;19953;-78
2022/04/27 01:48:45;;;;;;;;;;;;;;;;;;5058249;28;19955;-77
2022/04/27 01:51:13;;;;;;;;;;;;;;;;;;5052720;28;20001;-77
2022/04/27 01:56:24;;;;;;;;;;;;;;;;;;5045783;28;19948;-78
2022/04/27 01:58:51;;;;;;;;;;;;;;;;;;5046307;28;19961;-78
2022/04/27 02:01:18;;;;;;;;;;;;;;;;;;5043341;28;19975;-78
2022/04/27 02:03:44;;;;;;;;;;;;;;;;;;5047806;28;20013;-79
2022/04/27 02:06:10;;;;;;;;;;;;;;;;;;5038084;28;20376;-77
2022/04/27 02:08:36;;;;;;;;;;;;;;;;;;5052048;28;20375;-78
2022/04/27 02:11:02;;;;;;;;;;;;;;;;;;5047751;28;19956;-77
2022/04/27 02:13:29;;;;;;;;;;;;;;;;;;5046499;28;20372;-78
2022/04/27 02:15:55;;;;;;;;;;;;;;;;;;5043329;28;19943;-78
2022/04/27 02:18:21;;;;;;;;;;;;;;;;;;5032799;28;19937;-78
2022/04/27 02:20:47;;;;;;;;;;;;;;;;;;5039913;28;19952;-77
2022/04/27 02:23:13;;;;;;;;;;;;;;;;;;5065907;28;19955;-77
2022/04/27 02:25:40;;;;;;;;;;;;;;;;;;5051850;28;19960;-78
2022/04/27 02:28:06;;;;;;;;;;;;;;;;;;5045143;28;19940;-78
2022/04/27 02:30:32;;;;;;;;;;;;;;;;;;5048666;28;20349;-78
2022/04/27 02:32:58;;;;;;;;;;;;;;;;;;5046942;28;19955;-77
2022/04/27 02:35:25;;;;;;;;;;;;;;;;;;5032149;28;20417;-77
2022/04/27 02:37:51;;;;;;;;;;;;;;;;;;5046634;28;19967;-77
2022/04/27 02:40:17;;;;;;;;;;;;;;;;;;5049292;28;19960;-77
2022/04/27 02:42:43;;;;;;;;;;;;;;;;;;5046339;28;19959;-77
2022/04/27 02:45:09;;;;;;;;;;;;;;;;;;5052094;28;19964;-76
2022/04/27 02:47:35;;;;;;;;;;;;;;;;;;5045452;28;19940;-77
2022/04/27 02:52:46;;;;;;;;;;;;;;;;;;5031339;28;19913;-77
2022/04/27 02:55:12;;;;;;;;;;;;;;;;;;5057417;28;19960;-76
2022/04/27 02:57:39;;;;;;;;;;;;;;;;;;5051130;28;20322;-76
2022/04/27 03:00:05;;;;;;;;;;;;;;;;;;5050904;28;20369;-78
2022/04/27 03:02:31;;;;;;;;;;;;;;;;;;5030720;28;19920;-76
2022/04/27 03:04:57;;;;;;;;;;;;;;;;;;5063515;28;19960;-77
2022/04/27 03:07:23;;;;;;;;;;;;;;;;;;5051386;28;19985;-77
2022/04/27 03:09:50;;;;;;;;;;;;;;;;;;5052182;28;19921;-77
2022/04/27 03:12:16;;;;;;;;;;;;;;;;;;5050344;28;19952;-75
2022/04/27 03:14:43;;;;;;;;;;;;;;;;;;5030256;28;20635;-76
2022/04/27 03:17:09;;;;;;;;;;;;;;;;;;5037661;28;19964;-76
2022/04/27 03:19:36;;;;;;;;;;;;;;;;;;5028762;28;20593;-76
2022/04/27 03:22:02;;;;;;;;;;;;;;;;;;5050281;28;19964;-77
2022/04/27 03:24:28;;;;;;;;;;;;;;;;;;5037184;28;19923;-76
2022/04/27 03:26:54;;;;;;;;;;;;;;;;;;5040577;28;19956;-77
2022/04/27 03:29:47;;;;;;;;;;;;;;;;;;5019759;28;19939;-78
2022/04/27 03:32:19;;;;;;;;;;;;;;;;;;5036833;28;19928;-78
2022/04/27 03:34:57;;;;;;;;;;;;;;;;;;5034463;28;20383;-77
2022/04/27 03:37:24;;;;;;;;;;;;;;;;;;5055875;28;19956;-77
2022/04/27 03:39:50;;;;;;;;;;;;;;;;;;5020401;28;19922;-77
2022/04/27 03:42:19;;;;;;;;;;;;;;;;;;5028434;28;19920;-78
2022/04/27 03:44:51;;;;;;;;;;;;;;;;;;5023036;28;19923;-77
2022/04/27 03:47:20;;;;;;;;;;;;;;;;;;5014041;28;19920;-78
2022/04/27 03:49:49;;;;;;;;;;;;;;;;;;4969018;28;20073;-76
2022/04/27 03:52:49;;;;;;;;;;;;;;;;;;5020397;28;19935;-79
2022/04/27 03:55:56;;;;;;;;;;;;;;;;;;4934058;28;20024;-77
2022/04/27 03:58:40;;;;;;;;;;;;;;;;;;4936420;28;19922;-77
2022/04/27 04:01:18;;;;;;;;;;;;;;;;;;4968658;28;19922;-77
2022/04/27 04:03:47;;;;;;;;;;;;;;;;;;5006472;28;20462;-75
2022/04/27 04:06:14;;;;;;;;;;;;;;;;;;5054845;28;20446;-76
2022/04/27 04:08:40;;;;;;;;;;;;;;;;;;5035898;28;20103;-76
2022/04/27 04:11:06;;;;;;;;;;;;;;;;;;5056547;28;20373;-76
2022/04/27 04:13:32;;;;;;;;;;;;;;;;;;5044199;28;19967;-77
2022/04/27 04:15:58;;;;;;;;;;;;;;;;;;5039890;28;19956;-77
2022/04/27 04:18:25;;;;;;;;;;;;;;;;;;5051815;28;19960;-74
2022/04/27 04:20:51;;;;;;;;;;;;;;;;;;5050387;28;19956;-76
2022/04/27 04:23:17;;;;;;;;;;;;;;;;;;5048939;28;19913;-76
2022/04/27 04:28:31;;;;;;;;;;;;;;;;;;5052624;28;19917;-78
2022/04/27 04:30:57;;;;;;;;;;;;;;;;;;5039198;28;20289;-75
2022/04/27 04:33:23;;;;;;;;;;;;;;;;;;5032842;28;19917;-76
2022/04/27 04:35:50;;;;;;;;;;;;;;;;;;5047398;28;19952;-76
2022/04/27 04:38:16;;;;;;;;;;;;;;;;;;5052892;28;19913;-75
2022/04/27 04:40:43;;;;;;;;;;;;;;;;;;5043710;28;19979;-75
2022/04/27 04:43:09;;;;;;;;;;;;;;;;;;5058520;28;19944;-75
2022/04/27 04:45:35;;;;;;;;;;;;;;;;;;5042346;28;20022;-76
2022/04/27 04:48:02;;;;;;;;;;;;;;;;;;5045907;28;19948;-75
2022/04/27 04:50:29;;;;;;;;;;;;;;;;;;5044584;28;19967;-75
2022/04/27 04:52:55;;;;;;;;;;;;;;;;;;5054423;28;19960;-75
2022/04/27 04:55:21;;;;;;;;;;;;;;;;;;5044178;28;19921;-75
2022/04/27 04:57:48;;;;;;;;;;;;;;;;;;5034981;28;20370;-75
2022/04/27 05:00:14;;;;;;;;;;;;;;;;;;5056395;28;20014;-75
2022/04/27 05:02:40;;;;;;;;;;;;;;;;;;5046536;28;19965;-77
2022/04/27 05:05:06;;;;;;;;;;;;;;;;;;5052146;28;19979;-76
2022/04/27 05:07:32;;;;;;;;;;;;;;;;;;5048199;28;19971;-75
2022/04/27 05:09:59;;;;;;;;;;;;;;;;;;5030897;28;19956;-75
2022/04/27 05:12:25;;;;;;;;;;;;;;;;;;5043820;28;19956;-75
2022/04/27 05:14:51;;;;;;;;;;;;;;;;;;5040858;28;19921;-75
2022/04/27 05:17:17;;;;;;;;;;;;;;;;;;5045905;28;19967;-75
2022/04/27 05:19:43;;;;;;;;;;;;;;;;;;5031573;28;19999;-74
2022/04/27 05:22:10;;;;;;;;;;;;;;;;;;5052996;28;19956;-74
2022/04/27 05:24:36;;;;;;;;;;;;;;;;;;5044236;28;20383;-74
2022/04/27 05:27:02;;;;;;;;;;;;;;;;;;5049165;28;19956;-75
2022/04/27 05:32:14;;;;;;;;;;;;;;;;;;5054080;28;23874;-76
2022/04/27 05:34:41;;;;;;;;;;;;;;;;;;5042071;28;19956;-75
2022/04/27 05:37:07;;;;;;;;;;;;;;;;;;5039442;28;19932;-78
2022/04/27 05:39:33;;;;;;;;;;;;;;;;;;5037494;28;19975;-80
2022/04/27 05:41:59;;;;;;;;;;;;;;;;;;5037169;28;19956;-80
2022/04/27 05:44:25;;;;;;;;;;;;;;;;;;5044864;28;19987;-80
2022/04/27 05:46:52;;;;;;;;;;;;;;;;;;5045705;28;19979;-79
2022/04/27 05:49:18;;;;;;;;;;;;;;;;;;5039702;28;19936;-79
2022/04/27 05:51:44;;;;;;;;;;;;;;;;;;5041132;28;19970;-80
2022/04/27 05:54:10;;;;;;;;;;;;;;;;;;5041606;28;19963;-79
2022/04/27 05:56:37;;;;;;;;;;;;;;;;;;5053904;28;19956;-79
2022/04/27 05:59:03;;;;;;;;;;;;;;;;;;5042332;28;20639;-80
2022/04/27 06:01:29;;;;;;;;;;;;;;;;;;5028387;28;19960;-79
2022/04/27 06:03:55;;;;;;;;;;;;;;;;;;5039570;28;21159;-79
2022/04/27 06:06:22;;;;;;;;;;;;;;;;;;5040818;28;19956;-79
2022/04/27 06:08:48;;;;;;;;;;;;;;;;;;5030229;28;19955;-80
2022/04/27 06:11:16;;;;;;;;;;;;;;;;;;5043454;28;19959;-80
2022/04/27 06:13:42;;;;;;;;;;;;;;;;;;5048424;28;19964;-79
2022/04/27 06:16:09;;;;;;;;;;;;;;;;;;5044497;28;19973;-80
2022/04/27 06:18:35;;;;;;;;;;;;;;;;;;5056787;28;19955;-79
2022/04/27 06:21:01;;;;;;;;;;;;;;;;;;5059183;28;19952;-79
2022/04/27 06:23:27;;;;;;;;;;;;;;;;;;5050054;28;20040;-79
2022/04/27 06:25:54;;;;;;;;;;;;;;;;;;5049539;28;19956;-79
2022/04/27 06:28:20;;;;;;;;;;;;;;;;;;5047489;28;19960;-79
2022/04/27 06:30:46;;;;;;;;;;;;;;;;;;5052164;28;19968;-79
2022/04/27 06:33:12;;;;;;;;;;;;;;;;;;5044246;28;20364;-79
2022/04/27 06:35:38;;;;;;;;;;;;;;;;;;5053373;28;19956;-78
2022/04/27 06:38:05;;;;;;;;;;;;;;;;;;5047069;28;20006;-78
2022/04/27 06:40:31;;;;;;;;;;;;;;;;;;5035283;28;19956;-78
2022/04/27 06:42:57;;;;;;;;;;;;;;;;;;5052184;28;19956;-78
2022/04/27 06:45:28;;;;;;;;;;;;;;;;;;5052172;28;19960;-78
2022/04/27 06:47:54;;;;;;;;;;;;;;;;;;5013043;28;19941;-78
2022/04/27 06:50:20;;;;;;;;;;;;;;;;;;5041331;28;19986;-80
2022/04/27 06:52:47;;;;;;;;;;;;;;;;;;5040451;28;19925;-78
2022/04/27 06:55:13;;;;;;;;;;;;;;;;;;5034177;28;20421;-78
2022/04/27 06:57:39;;;;;;;;;;;;;;;;;;5037436;28;19917;-79
2022/04/27 07:00:08;;;;;;;;;;;;;;;;;;5042191;28;19960;-78
2022/04/27 07:02:34;;;;;;;;;;;;;;;;;;5046568;28;19944;-78
2022/04/27 07:05:01;;;;;;;;;;;;;;;;;;5041477;28;19963;-78
2022/04/27 07:07:27;;;;;;;;;;;;;;;;;;5031374;28;19943;-79
2022/04/27 07:09:56;;;;;;;;;;;;;;;;;;5051083;28;19916;-78
2022/04/27 07:12:22;;;;;;;;;;;;;;;;;;5035281;28;19948;-78
2022/04/27 07:14:48;;;;;;;;;;;;;;;;;;5050636;28;19975;-80
2022/04/27 07:17:17;;;;;;;;;;;;;;;;;;5033914;28;19951;-78
2022/04/27 07:19:44;;;;;;;;;;;;;;;;;;5041259;28;19973;-78
2022/04/27 07:22:16;;;;;;;;;;;;;;;;;;5055985;28;19945;-79
2022/04/27 07:24:49;;;;;;;;;;;;;;;;;;5038748;28;19936;-79
2022/04/27 07:27:16;;;;;;;;;;;;;;;;;;5042268;28;19956;-78
2022/04/27 07:29:42;;;;;;;;;;;;;;;;;;5038154;28;20328;-78
2022/04/27 07:32:08;;;;;;;;;;;;;;;;;;5054561;28;19936;-78
2022/04/27 07:34:34;;;;;;;;;;;;;;;;;;5043376;28;19925;-78
2022/04/27 07:37:02;;;;;;;;;;;;;;;;;;5025624;28;20766;-78
2022/04/27 07:39:29;;;;;;;;;;;;;;;;;;5034692;28;19963;-79
2022/04/27 07:41:55;;;;;;;;;;;;;;;;;;5046080;28;19929;-79
2022/04/27 07:44:21;;;;;;;;;;;;;;;;;;5060403;28;19951;-79
2022/04/27 07:46:47;;;;;;;;;;;;;;;;;;5049336;28;19967;-78
2022/04/27 07:49:14;;;;;;;;;;;;;;;;;;5034862;28;19959;-78
2022/04/27 07:51:40;;;;;;;;;;;;;;;;;;5047407;28;19963;-78
2022/04/27 07:54:06;;;;;;;;;;;;;;;;;;5061734;28;19922;-79
2022/04/27 07:56:32;;;;;;;;;;;;;;;;;;5032928;28;19917;-79
2022/04/27 07:58:58;;;;;;;;;;;;;;;;;;5044229;28;19956;-80
2022/04/27 08:01:24;;;;;;;;;;;;;;;;;;5050968;28;19975;-79
2022/04/27 08:03:51;;;;;;;;;;;;;;;;;;5046447;28;19952;-79
2022/04/27 08:06:18;;;;;;;;;;;;;;;;;;5047571;28;19940;-79
2022/04/27 08:08:44;;;;;;;;;;;;;;;;;;5045801;28;19959;-79
2022/04/27 08:11:13;;;;;;;;;;;;;;;;;;5038450;28;20334;-80
2022/04/27 08:13:39;;;;;;;;;;;;;;;;;;5038878;28;19950;-79
2022/04/27 08:16:07;;;;;;;;;;;;;;;;;;5045771;28;19956;-78
2022/04/27 08:18:35;;;;;;;;;;;;;;;;;;5041538;28;19921;-78
2022/04/27 08:21:14;;;;;;;;;;;;;;;;;;5048262;28;19964;-78
2022/04/27 08:23:40;;;;;;;;;;;;;;;;;;5038924;28;19953;-79
2022/04/27 08:26:06;;;;;;;;;;;;;;;;;;5041807;28;19941;-79
2022/04/27 08:28:32;;;;;;;;;;;;;;;;;;5050953;28;19920;-78
2022/04/27 08:30:59;;;;;;;;;;;;;;;;;;5050353;28;19929;-78
2022/04/27 08:33:25;;;;;;;;;;;;;;;;;;5057658;28;20212;-78
2022/04/27 08:35:51;;;;;;;;;;;;;;;;;;5054371;28;19956;-78
2022/04/27 08:38:17;;;;;;;;;;;;;;;;;;5054354;28;19952;-79
2022/04/27 08:40:44;;;;;;;;;;;;;;;;;;5046257;28;19975;-78
2022/04/27 08:43:10;;;;;;;;;;;;;;;;;;5052487;28;19951;-78
2022/04/27 08:45:36;;;;;;;;;;;;;;;;;;5052796;28;19917;-78
2022/04/27 08:48:02;;;;;;;;;;;;;;;;;;5049150;28;19948;-78
2022/04/27 08:50:28;;;;;;;;;;;;;;;;;;5050857;28;19924;-79
2022/04/27 08:52:55;;;;;;;;;;;;;;;;;;5048489;28;19952;-78
2022/04/27 08:55:21;;;;;;;;;;;;;;;;;;5045772;28;20364;-79
2022/04/27 08:57:50;;;;;;;;;;;;;;;;;;5030153;28;19975;-78
2022/04/27 09:00:16;;;;;;;;;;;;;;;;;;5050148;28;19975;-78
2022/04/27 09:02:42;;;;;;;;;;;;;;;;;;5047873;28;20341;-81
2022/04/27 09:05:09;;;;;;;;;;;;;;;;;;5042943;28;19952;-81
2022/04/27 09:07:35;;;;;;;;;;;;;;;;;;5039397;28;20005;-81
2022/04/27 09:10:01;;;;;;;;;;;;;;;;;;5067190;28;20430;-81
2022/04/27 09:12:27;;;;;;;;;;;;;;;;;;5047441;28;19952;-81
2022/04/27 09:14:53;;;;;;;;;;;;;;;;;;5053195;28;19921;-81
2022/04/27 09:22:51;;;;;;;;;;;;;;;;;;5043244;28;19955;-81
2022/04/27 09:25:17;;;;;;;;;;;;;;;;;;5062970;28;19953;-80
2022/04/27 09:27:43;;;;;;;;;;;;;;;;;;5033426;28;19953;-80
2022/04/27 09:30:10;;;;;;;;;;;;;;;;;;5054951;28;19963;-80
2022/04/27 09:32:36;;;;;;;;;;;;;;;;;;5045989;28;19951;-80
2022/04/27 09:35:03;;;;;;;;;;;;;;;;;;5046203;28;20001;-80
2022/04/27 09:37:32;;;;;;;;;;;;;;;;;;5050996;28;19956;-80
2022/04/27 09:39:59;;;;;;;;;;;;;;;;;;5044096;28;20030;-80
2022/04/27 09:42:25;;;;;;;;;;;;;;;;;;5058285;28;20002;-80
2022/04/27 09:44:51;;;;;;;;;;;;;;;;;;5043363;28;19961;-79
2022/04/27 09:47:17;;;;;;;;;;;;;;;;;;5042633;28;19960;-79
2022/04/27 09:49:46;;;;;;;;;;;;;;;;;;5040129;28;19952;-79
2022/04/27 09:52:12;;;;;;;;;;;;;;;;;;5045815;28;20380;-79
2022/04/27 09:54:40;;;;;;;;;;;;;;;;;;5028311;28;19948;-79
2022/04/27 09:57:08;;;;;;;;;;;;;;;;;;5047660;28;19948;-80
2022/04/27 09:59:35;;;;;;;;;;;;;;;;;;5068074;28;20022;-79
2022/04/27 10:02:01;;;;;;;;;;;;;;;;;;5034332;28;19917;-80
2022/04/27 10:04:30;;;;;;;;;;;;;;;;;;5028764;28;19971;-80
2022/04/27 10:06:58;;;;;;;;;;;;;;;;;;5035243;28;20436;-81
2022/04/27 10:09:24;;;;;;;;;;;;;;;;;;5047908;28;20431;-79
2022/04/27 10:11:50;;;;;;;;;;;;;;;;;;5042362;28;19944;-79
2022/04/27 10:14:16;;;;;;;;;;;;;;;;;;5042015;28;20011;-80
2022/04/27 10:16:43;;;;;;;;;;;;;;;;;;5036335;28;19992;-81
2022/04/27 10:19:09;;;;;;;;;;;;;;;;;;5061872;28;20313;-80
2022/04/27 10:21:39;;;;;;;;;;;;;;;;;;5042894;28;20520;-80
2022/04/27 10:24:05;;;;;;;;;;;;;;;;;;5017624;28;19956;-81
2022/04/27 10:26:31;;;;;;;;;;;;;;;;;;5036652;28;19952;-80
2022/04/27 10:28:58;;;;;;;;;;;;;;;;;;5052076;28;19920;-80
2022/04/27 10:31:24;;;;;;;;;;;;;;;;;;5041358;28;20030;-81
2022/04/27 10:33:53;;;;;;;;;;;;;;;;;;5055550;28;19952;-81
2022/04/27 10:36:19;;;;;;;;;;;;;;;;;;5042685;28;19925;-81
2022/04/27 10:38:45;;;;;;;;;;;;;;;;;;5043239;28;19956;-80
2022/04/27 10:41:11;;;;;;;;;;;;;;;;;;5043401;28;19967;-81
2022/04/27 10:43:37;;;;;;;;;;;;;;;;;;5037615;28;19952;-79
2022/04/27 10:46:04;;;;;;;;;;;;;;;;;;5030906;28;19921;-81
2022/04/27 10:48:30;;;;;;;;;;;;;;;;;;5050582;28;19947;-81
2022/04/27 10:50:56;;;;;;;;;;;;;;;;;;5049918;28;19971;-80
2022/04/27 10:53:23;;;;;;;;;;;;;;;;;;5043006;28;19913;-81
2022/04/27 10:55:51;;;;;;;;;;;;;;;;;;5051299;28;20482;-80
2022/04/27 10:58:17;;;;;;;;;;;;;;;;;;5048053;28;19956;-81
2022/04/27 11:00:43;;;;;;;;;;;;;;;;;;5041254;28;20298;-80
2022/04/27 11:03:09;;;;;;;;;;;;;;;;;;5029082;28;19959;-81
2022/04/27 11:05:36;;;;;;;;;;;;;;;;;;5063580;28;20404;-80
2022/04/27 11:08:02;;;;;;;;;;;;;;;;;;5048185;28;19967;-82
2022/04/27 11:10:28;;;;;;;;;;;;;;;;;;5063161;28;19967;-84
2022/04/27 11:12:54;;;;;;;;;;;;;;;;;;5059213;28;19916;-82
2022/04/27 11:15:23;;;;;;;;;;;;;;;;;;5043354;28;20380;-82
2022/04/27 11:17:50;;;;;;;;;;;;;;;;;;5043754;28;19913;-81
2022/04/27 11:20:16;;;;;;;;;;;;;;;;;;5036416;28;19956;-81
2022/04/27 11:22:42;;;;;;;;;;;;;;;;;;5033993;28;19957;-81
2022/04/27 11:25:08;;;;;;;;;;;;;;;;;;5035227;28;19952;-82
2022/04/27 11:27:35;;;;;;;;;;;;;;;;;;5044724;28;19971;-81
2022/04/27 11:30:01;;;;;;;;;;;;;;;;;;5040422;28;19967;-80
2022/04/27 11:32:28;;;;;;;;;;;;;;;;;;5051647;28;19964;-82
2022/04/27 11:34:54;;;;;;;;;;;;;;;;;;5033082;28;19982;-82
2022/04/27 11:37:20;;;;;;;;;;;;;;;;;;5029763;28;19986;-81
2022/04/27 11:39:47;;;;;;;;;;;;;;;;;;5040611;28;20371;-81
2022/04/27 11:42:13;;;;;;;;;;;;;;;;;;5055856;28;19921;-82
2022/04/27 11:44:39;;;;;;;;;;;;;;;;;;5031099;28;20365;-81
2022/04/27 11:47:05;;;;;;;;;;;;;;;;;;5051099;28;20348;-82
2022/04/27 11:49:31;;;;;;;;;;;;;;;;;;5036163;28;19952;-80
2022/04/27 11:51:58;;;;;;;;;;;;;;;;;;5037557;28;19956;-82
2022/04/27 11:54:24;;;;;;;;;;;;;;;;;;5041486;28;19956;-82
2022/04/27 11:56:51;;;;;;;;;;;;;;;;;;5036618;28;19952;-81
2022/04/27 11:59:17;;;;;;;;;;;;;;;;;;5037312;28;19995;-82
2022/04/27 12:01:43;;;;;;;;;;;;;;;;;;5035668;28;19956;-82
2022/04/27 12:04:09;;;;;;;;;;;;;;;;;;5042372;28;20390;-82
2022/04/27 12:06:35;;;;;;;;;;;;;;;;;;5039016;28;19974;-81
2022/04/27 12:09:02;;;;;;;;;;;;;;;;;;5033739;28;19948;-82
2022/04/27 12:11:28;;;;;;;;;;;;;;;;;;5046063;28;20035;-82
2022/04/27 12:13:55;;;;;;;;;;;;;;;;;;5052906;28;19956;-82
2022/04/27 12:16:21;;;;;;;;;;;;;;;;;;5049052;28;19944;-82
2022/04/27 12:18:47;;;;;;;;;;;;;;;;;;5049991;28;19953;-81
2022/04/27 12:21:13;;;;;;;;;;;;;;;;;;5024594;28;19960;-82
2022/04/27 12:23:39;;;;;;;;;;;;;;;;;;5045851;28;20002;-81
2022/04/27 12:26:07;;;;;;;;;;;;;;;;;;5046421;28;19956;-82
2022/04/27 12:28:33;;;;;;;;;;;;;;;;;;5038916;28;19946;-84
2022/04/27 12:31:00;;;;;;;;;;;;;;;;;;5043679;28;19956;-82
2022/04/27 12:33:26;;;;;;;;;;;;;;;;;;5046329;28;19952;-82
2022/04/27 12:38:37;;;;;;;;;;;;;;;;;;5033457;28;19940;-77
2022/04/27 12:41:04;;;;;;;;;;;;;;;;;;5035511;28;19972;-78
2022/04/27 12:43:32;;;;;;;;;;;;;;;;;;5034813;28;19964;-78
2022/04/27 12:45:58;;;;;;;;;;;;;;;;;;5037146;28;19920;-78
2022/04/27 12:48:24;;;;;;;;;;;;;;;;;;5046126;28;19956;-78
2022/04/27 12:50:53;;;;;;;;;;;;;;;;;;5022344;28;19917;-78
2022/04/27 12:53:19;;;;;;;;;;;;;;;;;;5044154;28;19938;-79
2022/04/27 12:55:46;;;;;;;;;;;;;;;;;;5056294;28;20392;-79
2022/04/27 12:58:12;;;;;;;;;;;;;;;;;;5046271;28;19967;-78
2022/04/27 13:00:38;;;;;;;;;;;;;;;;;;5052355;28;20133;-79
2022/04/27 13:03:05;;;;;;;;;;;;;;;;;;5050116;28;19948;-79
2022/04/27 13:05:31;;;;;;;;;;;;;;;;;;5051945;28;19940;-79
2022/04/27 13:07:57;;;;;;;;;;;;;;;;;;5023637;28;20570;-78
2022/04/27 13:13:08;;;;;;;;;;;;;;;;;;5036713;28;20503;-78
2022/04/27 13:15:35;;;;;;;;;;;;;;;;;;5051805;28;19948;-76
2022/04/27 13:18:01;;;;;;;;;;;;;;;;;;5050027;28;19974;-77
2022/04/27 13:20:28;;;;;;;;;;;;;;;;;;5037442;28;19965;-78
2022/04/27 13:22:54;;;;;;;;;;;;;;;;;;5051021;28;19944;-78
2022/04/27 13:25:20;;;;;;;;;;;;;;;;;;5054201;28;20475;-77
2022/04/27 13:27:46;;;;;;;;;;;;;;;;;;5049083;28;19959;-75
2022/04/27 13:30:12;;;;;;;;;;;;;;;;;;5055415;28;19963;-76
2022/04/27 13:32:39;;;;;;;;;;;;;;;;;;5051816;28;19921;-76
2022/04/27 13:35:05;;;;;;;;;;;;;;;;;;5063041;28;19955;-76
2022/04/27 13:37:31;;;;;;;;;;;;;;;;;;5058048;28;19963;-77
2022/04/27 13:39:57;;;;;;;;;;;;;;;;;;5052039;28;20349;-77
2022/04/27 13:42:24;;;;;;;;;;;;;;;;;;5048839;28;19963;-77
2022/04/27 13:44:50;;;;;;;;;;;;;;;;;;5051772;28;19944;-76
2022/04/27 13:47:17;;;;;;;;;;;;;;;;;;5046941;28;19956;-76
2022/04/27 13:49:43;;;;;;;;;;;;;;;;;;5045071;28;20404;-77
2022/04/27 13:52:10;;;;;;;;;;;;;;;;;;5040891;28;20002;-76
2022/04/27 13:54:36;;;;;;;;;;;;;;;;;;5050493;28;19951;-76
2022/04/27 13:57:02;;;;;;;;;;;;;;;;;;5049286;28;19955;-78
2022/04/27 13:59:28;;;;;;;;;;;;;;;;;;5050294;28;19932;-76
2022/04/27 14:01:55;;;;;;;;;;;;;;;;;;5026310;28;19975;-77
2022/04/27 14:04:21;;;;;;;;;;;;;;;;;;5052796;28;19947;-76
2022/04/27 14:06:48;;;;;;;;;;;;;;;;;;5042470;28;19955;-76
2022/04/27 14:09:15;;;;;;;;;;;;;;;;;;5044382;28;19952;-77
2022/04/27 14:14:26;;;;;;;;;;;;;;;;;;5051057;28;19948;-76
2022/04/27 14:19:37;;;;;;;;;;;;;;;;;;5054683;28;19944;-77
2022/04/27 14:22:04;;;;;;;;;;;;;;;;;;5031816;28;19964;-76
2022/04/27 14:24:30;;;;;;;;;;;;;;;;;;5043203;28;20333;-76
2022/04/27 14:26:56;;;;;;;;;;;;;;;;;;5066445;28;19963;-76
2022/04/27 14:29:23;;;;;;;;;;;;;;;;;;5054427;28;19913;-76
2022/04/27 14:31:49;;;;;;;;;;;;;;;;;;5041318;28;19975;-75
2022/04/27 14:34:15;;;;;;;;;;;;;;;;;;5047847;28;19983;-76
2022/04/27 14:36:41;;;;;;;;;;;;;;;;;;5043186;28;19959;-75
2022/04/27 14:39:07;;;;;;;;;;;;;;;;;;5043445;28;19951;-75
2022/04/27 14:41:35;;;;;;;;;;;;;;;;;;5046661;28;19958;-76
2022/04/27 14:44:01;;;;;;;;;;;;;;;;;;5047118;28;19963;-75
2022/04/27 14:46:27;;;;;;;;;;;;;;;;;;5046341;28;19975;-75
2022/04/27 14:48:53;;;;;;;;;;;;;;;;;;5057135;28;19952;-76
2022/04/27 14:51:19;;;;;;;;;;;;;;;;;;5054395;28;19959;-76
2022/04/27 14:53:46;;;;;;;;;;;;;;;;;;5035458;28;19948;-75
2022/04/27 14:56:12;;;;;;;;;;;;;;;;;;5052964;28;20018;-75
2022/04/27 14:58:38;;;;;;;;;;;;;;;;;;5038647;28;19964;-76
2022/04/27 15:01:04;;;;;;;;;;;;;;;;;;5047941;28;19960;-75
2022/04/27 15:03:30;;;;;;;;;;;;;;;;;;5038912;28;20404;-77
2022/04/27 15:05:57;;;;;;;;;;;;;;;;;;5049186;28;20437;-76
2022/04/27 15:08:23;;;;;;;;;;;;;;;;;;5047675;28;19958;-76
2022/04/27 15:10:49;;;;;;;;;;;;;;;;;;5042094;28;19960;-75
2022/04/27 15:13:15;;;;;;;;;;;;;;;;;;5049974;28;20286;-76
2022/04/27 15:15:42;;;;;;;;;;;;;;;;;;5053974;28;19943;-76
2022/04/27 15:18:08;;;;;;;;;;;;;;;;;;5053805;28;20489;-77
2022/04/27 15:23:19;;;;;;;;;;;;;;;;;;5064373;28;19951;-75
2022/04/27 15:25:45;;;;;;;;;;;;;;;;;;5048469;28;19955;-77
2022/04/27 15:28:12;;;;;;;;;;;;;;;;;;5028494;28;19945;-76
2022/04/27 15:30:39;;;;;;;;;;;;;;;;;;5054832;28;20101;-76
2022/04/27 15:33:05;;;;;;;;;;;;;;;;;;5049948;28;19949;-76
2022/04/27 15:35:31;;;;;;;;;;;;;;;;;;5047456;28;19951;-76
2022/04/27 15:37:58;;;;;;;;;;;;;;;;;;5050747;28;20356;-76
2022/04/27 15:40:24;;;;;;;;;;;;;;;;;;5049975;28;19956;-76
2022/04/27 15:42:51;;;;;;;;;;;;;;;;;;5049498;28;20003;-76
2022/04/27 15:45:17;;;;;;;;;;;;;;;;;;5051400;28;20373;-76
2022/04/27 15:47:43;;;;;;;;;;;;;;;;;;5041019;28;19954;-76
2022/04/27 15:50:09;;;;;;;;;;;;;;;;;;5051616;28;19960;-76
2022/04/27 15:52:36;;;;;;;;;;;;;;;;;;5046602;28;19949;-76
2022/04/27 15:55:02;;;;;;;;;;;;;;;;;;5043596;28;19956;-76
2022/04/27 15:57:28;;;;;;;;;;;;;;;;;;5043884;28;20336;-76
2022/04/27 15:59:54;;;;;;;;;;;;;;;;;;5039230;28;19944;-75
2022/04/27 16:02:20;;;;;;;;;;;;;;;;;;5065500;28;19948;-76
2022/04/27 16:04:47;;;;;;;;;;;;;;;;;;5045560;28;20360;-79
2022/04/27 16:07:13;;;;;;;;;;;;;;;;;;5051714;28;20023;-75
2022/04/27 16:09:39;;;;;;;;;;;;;;;;;;5041353;28;20337;-77
2022/04/27 16:12:05;;;;;;;;;;;;;;;;;;5051243;28;20382;-75
2022/04/27 16:14:32;;;;;;;;;;;;;;;;;;5043284;28;19955;-76
2022/04/27 16:16:58;;;;;;;;;;;;;;;;;;5045603;28;19953;-75
2022/04/27 16:19:24;;;;;;;;;;;;;;;;;;5042368;28;20313;-75
2022/04/27 16:24:36;;;;;;;;;;;;;;;;;;5038035;28;19941;-75
2022/04/27 16:27:02;;;;;;;;;;;;;;;;;;5071634;28;19990;-75
2022/04/27 16:29:28;;;;;;;;;;;;;;;;;;5051533;28;19974;-75
2022/04/27 16:31:54;;;;;;;;;;;;;;;;;;5030428;28;19960;-75
2022/04/27 16:34:21;;;;;;;;;;;;;;;;;;5042414;28;19948;-74
2022/04/27 16:36:47;;;;;;;;;;;;;;;;;;5051737;28;20043;-76
2022/04/27 16:39:14;;;;;;;;;;;;;;;;;;5051668;28;20389;-76
2022/04/27 16:41:40;;;;;;;;;;;;;;;;;;5053323;28;20076;-75
2022/04/27 16:44:06;;;;;;;;;;;;;;;;;;5049161;28;19952;-75
2022/04/27 16:46:32;;;;;;;;;;;;;;;;;;5047143;28;20331;-75
2022/04/27 16:48:59;;;;;;;;;;;;;;;;;;5055610;28;19956;-75
2022/04/27 16:51:25;;;;;;;;;;;;;;;;;;5042104;28;19952;-75
2022/04/27 16:53:51;;;;;;;;;;;;;;;;;;5040876;28;19967;-76
2022/04/27 16:56:17;;;;;;;;;;;;;;;;;;5059140;28;19947;-75
2022/04/27 16:58:43;;;;;;;;;;;;;;;;;;5042945;28;19956;-75
2022/04/27 17:01:10;;;;;;;;;;;;;;;;;;5057513;28;20062;-75
2022/04/27 17:03:36;;;;;;;;;;;;;;;;;;5044361;28;19959;-75
2022/04/27 17:06:05;;;;;;;;;;;;;;;;;;5069749;28;20312;-75
2022/04/27 17:08:32;;;;;;;;;;;;;;;;;;5047798;28;19947;-76
2022/04/27 17:10:58;;;;;;;;;;;;;;;;;;5041491;28;20071;-74
2022/04/27 17:13:24;;;;;;;;;;;;;;;;;;5053677;28;20004;-74
2022/04/27 17:15:51;;;;;;;;;;;;;;;;;;5047069;28;19939;-75